sensor_id;sensor_type;location;lat;lon;timestamp;pressure;altitude;pressure_sealevel;temperature;humidity
79455;BME280;68900;52.134;5.420;2023-08-07T00:00:00;101408.22;;;13.49;94.45
79455;BME280;68900;52.134;5.420;2023-08-07T00:02:27;101410.22;;;13.47;94.54
79455;BME280;68900;52.134;5.420;2023-08-07T00:04:54;101409.38;;;13.46;94.71
79455;BME280;68900;52.134;5.420;2023-08-07T00:07:21;101408.16;;;13.41;94.50
79455;BME280;68900;52.134;5.420;2023-08-07T00:09:47;101415.59;;;13.39;94.66
79455;BME280;68900;52.134;5.420;2023-08-07T00:12:14;101412.00;;;13.38;94.37
79455;BME280;68900;52.134;5.420;2023-08-07T00:14:41;101413.41;;;13.42;94.30
79455;BME280;68900;52.134;5.420;2023-08-07T00:17:09;101406.97;;;13.43;94.21
79455;BME280;68900;52.134;5.420;2023-08-07T00:19:35;101417.69;;;13.45;93.98
79455;BME280;68900;52.134;5.420;2023-08-07T00:22:02;101416.97;;;13.43;93.86
79455;BME280;68900;52.134;5.420;2023-08-07T00:24:29;101413.25;;;13.44;93.93
79455;BME280;68900;52.134;5.420;2023-08-07T00:26:55;101425.97;;;13.43;93.73
79455;BME280;68900;52.134;5.420;2023-08-07T00:29:22;101418.69;;;13.44;94.12
79455;BME280;68900;52.134;5.420;2023-08-07T00:31:49;101424.25;;;13.42;94.07
79455;BME280;68900;52.134;5.420;2023-08-07T00:34:15;101424.25;;;13.42;93.98
79455;BME280;68900;52.134;5.420;2023-08-07T00:36:42;101418.28;;;13.39;93.87
79455;BME280;68900;52.134;5.420;2023-08-07T00:39:12;101415.44;;;13.40;93.96
79455;BME280;68900;52.134;5.420;2023-08-07T00:41:39;101419.81;;;13.41;93.85
79455;BME280;68900;52.134;5.420;2023-08-07T00:44:06;101414.41;;;13.41;93.51
79455;BME280;68900;52.134;5.420;2023-08-07T00:46:33;101412.53;;;13.42;93.45
79455;BME280;68900;52.134;5.420;2023-08-07T00:49:01;101417.97;;;13.42;93.76
79455;BME280;68900;52.134;5.420;2023-08-07T00:51:28;101417.97;;;13.42;93.29
79455;BME280;68900;52.134;5.420;2023-08-07T00:53:55;101414.25;;;13.43;93.46
79455;BME280;68900;52.134;5.420;2023-08-07T00:56:23;101416.66;;;13.46;93.08
79455;BME280;68900;52.134;5.420;2023-08-07T00:58:50;101414.13;;;13.44;93.21
79455;BME280;68900;52.134;5.420;2023-08-07T01:01:17;101406.84;;;13.45;93.45
79455;BME280;68900;52.134;5.420;2023-08-07T01:03:44;101413.78;;;13.47;93.18
79455;BME280;68900;52.134;5.420;2023-08-07T01:06:11;101414.78;;;13.46;93.07
79455;BME280;68900;52.134;5.420;2023-08-07T01:08:41;101410.06;;;13.48;92.82
79455;BME280;68900;52.134;5.420;2023-08-07T01:16:46;101417.22;;;13.49;93.50
79455;BME280;68900;52.134;5.420;2023-08-07T01:19:28;101415.19;;;13.51;93.44
79455;BME280;68900;52.134;5.420;2023-08-07T01:22:25;101418.41;;;13.55;93.35
79455;BME280;68900;52.134;5.420;2023-08-07T01:24:51;101415.72;;;13.55;93.09
79455;BME280;68900;52.134;5.420;2023-08-07T01:30:26;101431.16;;;13.54;93.12
79455;BME280;68900;52.134;5.420;2023-08-07T01:35:29;101424.16;;;13.52;93.33
79455;BME280;68900;52.134;5.420;2023-08-07T01:37:58;101425.88;;;13.53;93.08
79455;BME280;68900;52.134;5.420;2023-08-07T01:40:28;101427.41;;;13.55;93.01
79455;BME280;68900;52.134;5.420;2023-08-07T01:42:55;101431.81;;;13.56;93.00
79455;BME280;68900;52.134;5.420;2023-08-07T01:45:26;101426.41;;;13.56;92.62
79455;BME280;68900;52.134;5.420;2023-08-07T01:47:53;101430.97;;;13.56;92.59
79455;BME280;68900;52.134;5.420;2023-08-07T01:50:21;101437.25;;;13.56;92.73
79455;BME280;68900;52.134;5.420;2023-08-07T01:52:51;101426.25;;;13.58;92.81
79455;BME280;68900;52.134;5.420;2023-08-07T01:55:19;101426.25;;;13.58;92.26
79455;BME280;68900;52.134;5.420;2023-08-07T01:57:49;101426.25;;;13.58;92.66
79455;BME280;68900;52.134;5.420;2023-08-07T02:00:19;101430.69;;;13.59;92.12
79455;BME280;68900;52.134;5.420;2023-08-07T02:02:46;101430.69;;;13.59;92.00
79455;BME280;68900;52.134;5.420;2023-08-07T02:05:14;101436.09;;;13.59;92.56
79455;BME280;68900;52.134;5.420;2023-08-07T02:07:41;101434.41;;;13.58;92.55
79455;BME280;68900;52.134;5.420;2023-08-07T02:10:08;101437.09;;;13.58;92.16
79455;BME280;68900;52.134;5.420;2023-08-07T02:12:35;101439.81;;;13.58;92.28
79455;BME280;68900;52.134;5.420;2023-08-07T02:15:02;101444.25;;;13.59;92.72
79455;BME280;68900;52.134;5.420;2023-08-07T02:17:28;101437.97;;;13.58;92.17
79455;BME280;68900;52.134;5.420;2023-08-07T02:19:59;101446.94;;;13.59;92.36
79455;BME280;68900;52.134;5.420;2023-08-07T02:22:26;101446.09;;;13.58;92.55
79455;BME280;68900;52.134;5.420;2023-08-07T02:24:52;101451.66;;;13.57;92.66
79455;BME280;68900;52.134;5.420;2023-08-07T02:27:19;101449.81;;;13.57;92.97
79455;BME280;68900;52.134;5.420;2023-08-07T02:29:45;101441.28;;;13.52;92.85
79455;BME280;68900;52.134;5.420;2023-08-07T02:32:12;101446.84;;;13.51;93.33
79455;BME280;68900;52.134;5.420;2023-08-07T02:34:38;101445.19;;;13.50;93.45
79455;BME280;68900;52.134;5.420;2023-08-07T02:37:05;101445.84;;;13.52;93.47
79455;BME280;68900;52.134;5.420;2023-08-07T02:39:32;101450.13;;;13.54;93.37
79455;BME280;68900;52.134;5.420;2023-08-07T02:41:58;101454.38;;;13.57;93.08
79455;BME280;68900;52.134;5.420;2023-08-07T02:44:25;101454.06;;;13.60;93.61
79455;BME280;68900;52.134;5.420;2023-08-07T02:46:51;101456.94;;;13.58;93.36
79455;BME280;68900;52.134;5.420;2023-08-07T02:49:19;101453.53;;;13.56;93.21
79455;BME280;68900;52.134;5.420;2023-08-07T02:51:45;101450.94;;;13.55;93.35
79455;BME280;68900;52.134;5.420;2023-08-07T02:54:12;101456.38;;;13.55;93.76
79455;BME280;68900;52.134;5.420;2023-08-07T02:56:38;101450.66;;;13.58;93.70
79455;BME280;68900;52.134;5.420;2023-08-07T02:59:05;101444.38;;;13.57;93.41
79455;BME280;68900;52.134;5.420;2023-08-07T03:01:32;101452.00;;;13.54;93.49
79455;BME280;68900;52.134;5.420;2023-08-07T03:03:59;101449.56;;;13.51;94.15
79455;BME280;68900;52.134;5.420;2023-08-07T03:06:26;101455.00;;;13.51;94.01
79455;BME280;68900;52.134;5.420;2023-08-07T03:08:52;101447.03;;;13.49;93.72
79455;BME280;68900;52.134;5.420;2023-08-07T03:11:19;101456.16;;;13.48;93.82
79455;BME280;68900;52.134;5.420;2023-08-07T03:13:45;101445.63;;;13.45;93.93
79455;BME280;68900;52.134;5.420;2023-08-07T03:16:12;101444.59;;;13.46;93.97
79455;BME280;68900;52.134;5.420;2023-08-07T03:18:39;101440.38;;;13.44;94.11
79455;BME280;68900;52.134;5.420;2023-08-07T03:21:07;101434.94;;;13.44;94.44
79455;BME280;68900;52.134;5.420;2023-08-07T03:23:33;101434.09;;;13.43;94.24
79455;BME280;68900;52.134;5.420;2023-08-07T03:26:08;101436.94;;;13.42;94.29
79455;BME280;68900;52.134;5.420;2023-08-07T03:28:38;101442.94;;;13.45;94.17
79455;BME280;68900;52.134;5.420;2023-08-07T03:31:05;101437.81;;;13.42;93.44
79455;BME280;68900;52.134;5.420;2023-08-07T03:33:32;101432.84;;;13.38;94.04
79455;BME280;68900;52.134;5.420;2023-08-07T03:35:58;101433.56;;;13.40;93.79
79455;BME280;68900;52.134;5.420;2023-08-07T03:38:25;101432.38;;;13.42;93.96
79455;BME280;68900;52.134;5.420;2023-08-07T03:40:52;101432.22;;;13.44;94.17
79455;BME280;68900;52.134;5.420;2023-08-07T03:43:18;101439.66;;;13.42;94.21
79455;BME280;68900;52.134;5.420;2023-08-07T03:45:45;101429.66;;;13.42;94.23
79455;BME280;68900;52.134;5.420;2023-08-07T03:48:14;101438.50;;;13.44;94.19
79455;BME280;68900;52.134;5.420;2023-08-07T03:50:40;101436.81;;;13.43;94.18
79455;BME280;68900;52.134;5.420;2023-08-07T03:53:07;101435.09;;;13.42;94.33
79455;BME280;68900;52.134;5.420;2023-08-07T03:55:34;101438.66;;;13.43;94.35
79455;BME280;68900;52.134;5.420;2023-08-07T03:58:01;101441.50;;;13.41;93.96
79455;BME280;68900;52.134;5.420;2023-08-07T04:00:28;101443.41;;;13.41;94.49
79455;BME280;68900;52.134;5.420;2023-08-07T04:02:55;101440.50;;;13.42;94.70
79455;BME280;68900;52.134;5.420;2023-08-07T04:05:21;101438.50;;;13.44;94.55
79455;BME280;68900;52.134;5.420;2023-08-07T04:07:48;101435.81;;;13.44;94.31
79455;BME280;68900;52.134;5.420;2023-08-07T04:10:15;101442.06;;;13.45;94.22
79455;BME280;68900;52.134;5.420;2023-08-07T04:12:41;101444.78;;;13.45;94.31
79455;BME280;68900;52.134;5.420;2023-08-07T04:15:08;101434.81;;;13.45;94.55
79455;BME280;68900;52.134;5.420;2023-08-07T04:17:36;101444.47;;;13.48;94.45
79455;BME280;68900;52.134;5.420;2023-08-07T04:20:03;101446.19;;;13.49;94.44
79455;BME280;68900;52.134;5.420;2023-08-07T04:22:30;101453.31;;;13.50;94.61
79455;BME280;68900;52.134;5.420;2023-08-07T04:24:56;101454.31;;;13.49;94.74
79455;BME280;68900;52.134;5.420;2023-08-07T04:27:23;101452.59;;;13.48;94.55
79455;BME280;68900;52.134;5.420;2023-08-07T04:29:50;101458.16;;;13.46;95.10
79455;BME280;68900;52.134;5.420;2023-08-07T04:32:16;101455.16;;;13.49;95.42
79455;BME280;68900;52.134;5.420;2023-08-07T04:34:43;101456.84;;;13.50;94.95
79455;BME280;68900;52.134;5.420;2023-08-07T04:37:09;101462.25;;;13.50;94.95
79455;BME280;68900;52.134;5.420;2023-08-07T04:39:36;101460.41;;;13.51;94.90
79455;BME280;68900;52.134;5.420;2023-08-07T04:42:03;101471.25;;;13.51;95.37
79455;BME280;68900;52.134;5.420;2023-08-07T04:44:30;101472.09;;;13.51;95.08
79455;BME280;68900;52.134;5.420;2023-08-07T04:46:56;101479.94;;;13.54;94.94
79455;BME280;68900;52.134;5.420;2023-08-07T04:49:23;101483.34;;;13.56;95.29
79455;BME280;68900;52.134;5.420;2023-08-07T04:51:50;101485.19;;;13.56;95.07
79455;BME280;68900;52.134;5.420;2023-08-07T04:54:16;101484.19;;;13.57;95.03
79455;BME280;68900;52.134;5.420;2023-08-07T04:56:43;101487.75;;;13.57;94.84
79455;BME280;68900;52.134;5.420;2023-08-07T04:59:11;101484.91;;;13.59;94.83
79455;BME280;68900;52.134;5.420;2023-08-07T05:01:37;101486.91;;;13.57;95.03
79455;BME280;68900;52.134;5.420;2023-08-07T05:04:05;101483.34;;;13.56;95.16
79455;BME280;68900;52.134;5.420;2023-08-07T05:06:33;101482.34;;;13.57;95.10
79455;BME280;68900;52.134;5.420;2023-08-07T05:08:59;101495.75;;;13.59;94.90
79455;BME280;68900;52.134;5.420;2023-08-07T05:11:27;101503.19;;;13.57;95.37
79455;BME280;68900;52.134;5.420;2023-08-07T05:13:54;101510.44;;;13.56;95.20
79455;BME280;68900;52.134;5.420;2023-08-07T05:16:20;101521.75;;;13.52;95.63
79455;BME280;68900;52.134;5.420;2023-08-07T05:18:47;101520.91;;;13.51;95.65
79455;BME280;68900;52.134;5.420;2023-08-07T05:21:16;101524.63;;;13.50;95.92
79455;BME280;68900;52.134;5.420;2023-08-07T05:23:43;101523.63;;;13.51;95.71
79455;BME280;68900;52.134;5.420;2023-08-07T05:26:10;101531.75;;;13.51;95.81
79455;BME280;68900;52.134;5.420;2023-08-07T05:28:38;101525.47;;;13.51;96.10
79455;BME280;68900;52.134;5.420;2023-08-07T05:31:06;101526.50;;;13.50;96.46
79455;BME280;68900;52.134;5.420;2023-08-07T05:33:32;101519.38;;;13.49;96.17
79455;BME280;68900;52.134;5.420;2023-08-07T05:35:59;101521.91;;;13.50;96.24
79455;BME280;68900;52.134;5.420;2023-08-07T05:38:26;101528.03;;;13.52;96.12
79455;BME280;68900;52.134;5.420;2023-08-07T05:41:08;101527.91;;;13.54;95.69
79455;BME280;68900;52.134;5.420;2023-08-07T05:43:35;101525.19;;;13.54;95.88
79455;BME280;68900;52.134;5.420;2023-08-07T05:46:03;101539.41;;;13.56;95.76
79455;BME280;68900;52.134;5.420;2023-08-07T05:48:35;101543.00;;;13.56;95.90
79455;BME280;68900;52.134;5.420;2023-08-07T05:51:10;101543.97;;;13.55;95.54
79455;BME280;68900;52.134;5.420;2023-08-07T05:53:36;101537.56;;;13.56;95.59
79455;BME280;68900;52.134;5.420;2023-08-07T05:56:03;101540.13;;;13.58;94.96
79455;BME280;68900;52.134;5.420;2023-08-07T05:58:29;101535.09;;;13.63;95.42
79455;BME280;68900;52.134;5.420;2023-08-07T06:00:56;101542.78;;;13.67;95.38
79455;BME280;68900;52.134;5.420;2023-08-07T06:03:23;101546.34;;;13.68;94.99
79455;BME280;68900;52.134;5.420;2023-08-07T06:05:50;101543.63;;;13.68;95.09
79455;BME280;68900;52.134;5.420;2023-08-07T06:08:16;101539.88;;;13.69;94.24
79455;BME280;68900;52.134;5.420;2023-08-07T06:10:43;101545.16;;;13.70;94.26
79455;BME280;68900;52.134;5.420;2023-08-07T06:13:26;101543.00;;;13.74;94.65
79455;BME280;68900;52.134;5.420;2023-08-07T06:16:01;101550.84;;;13.77;94.27
79455;BME280;68900;52.134;5.420;2023-08-07T06:18:28;101558.66;;;13.80;94.24
79455;BME280;68900;52.134;5.420;2023-08-07T06:20:56;101562.91;;;13.83;94.36
79455;BME280;68900;52.134;5.420;2023-08-07T06:23:23;101568.91;;;13.86;94.01
79455;BME280;68900;52.134;5.420;2023-08-07T06:25:49;101568.56;;;13.89;93.81
79455;BME280;68900;52.134;5.420;2023-08-07T06:28:21;101563.41;;;13.96;94.64
79455;BME280;68900;52.134;5.420;2023-08-07T06:30:48;101568.34;;;14.00;94.34
79455;BME280;68900;52.134;5.420;2023-08-07T06:33:28;101565.00;;;14.06;94.15
79455;BME280;68900;52.134;5.420;2023-08-07T06:35:55;101563.53;;;14.12;93.62
79455;BME280;68900;52.134;5.420;2023-08-07T06:38:21;101575.47;;;14.19;94.07
79455;BME280;68900;52.134;5.420;2023-08-07T06:40:48;101570.59;;;14.23;93.97
79455;BME280;68900;52.134;5.420;2023-08-07T06:43:15;101580.44;;;14.24;93.84
79455;BME280;68900;52.134;5.420;2023-08-07T06:45:41;101581.97;;;14.26;93.43
79455;BME280;68900;52.134;5.420;2023-08-07T06:48:08;101576.06;;;14.31;93.25
79455;BME280;68900;52.134;5.420;2023-08-07T06:50:34;101583.63;;;14.37;93.08
79455;BME280;68900;52.134;5.420;2023-08-07T06:53:03;101585.34;;;14.38;92.61
79455;BME280;68900;52.134;5.420;2023-08-07T06:55:30;101583.16;;;14.41;92.69
79455;BME280;68900;52.134;5.420;2023-08-07T06:57:57;101581.81;;;14.45;93.41
79455;BME280;68900;52.134;5.420;2023-08-07T07:00:23;101592.88;;;14.52;92.78
79455;BME280;68900;52.134;5.420;2023-08-07T07:02:50;101597.06;;;14.64;92.68
79455;BME280;68900;52.134;5.420;2023-08-07T07:05:17;101587.25;;;14.71;91.67
79455;BME280;68900;52.134;5.420;2023-08-07T07:07:52;101596.63;;;14.77;92.30
79455;BME280;68900;52.134;5.420;2023-08-07T07:10:21;101599.72;;;14.82;92.14
79455;BME280;68900;52.134;5.420;2023-08-07T07:12:47;101613.78;;;14.77;90.03
79455;BME280;68900;52.134;5.420;2023-08-07T07:15:15;101626.63;;;14.67;89.66
79455;BME280;68900;52.134;5.420;2023-08-07T07:17:41;101621.28;;;14.57;89.29
79455;BME280;68900;52.134;5.420;2023-08-07T07:20:09;101621.94;;;14.51;89.13
79455;BME280;68900;52.134;5.420;2023-08-07T07:22:36;101632.41;;;14.46;89.23
79455;BME280;68900;52.134;5.420;2023-08-07T07:25:03;101632.56;;;14.45;89.04
79455;BME280;68900;52.134;5.420;2023-08-07T07:27:30;101635.59;;;14.42;89.34
79455;BME280;68900;52.134;5.420;2023-08-07T07:29:57;101634.09;;;14.47;89.47
79455;BME280;68900;52.134;5.420;2023-08-07T07:32:38;101634.31;;;14.54;89.99
79455;BME280;68900;52.134;5.420;2023-08-07T07:35:05;101643.22;;;14.64;90.35
79455;BME280;68900;52.134;5.420;2023-08-07T07:37:32;101635.66;;;14.76;90.03
79455;BME280;68900;52.134;5.420;2023-08-07T07:39:58;101644.56;;;14.86;90.31
79455;BME280;68900;52.134;5.420;2023-08-07T07:42:25;101648.03;;;14.96;89.51
79455;BME280;68900;52.134;5.420;2023-08-07T07:44:52;101654.13;;;15.16;89.59
79455;BME280;68900;52.134;5.420;2023-08-07T07:47:18;101647.22;;;15.29;90.07
79455;BME280;68900;52.134;5.420;2023-08-07T07:49:46;101657.66;;;15.42;89.16
79455;BME280;68900;52.134;5.420;2023-08-07T07:52:18;101658.69;;;15.49;89.14
79455;BME280;68900;52.134;5.420;2023-08-07T07:54:45;101654.97;;;15.50;88.95
79455;BME280;68900;52.134;5.420;2023-08-07T07:57:11;101668.75;;;15.48;89.03
79455;BME280;68900;52.134;5.420;2023-08-07T07:59:38;101664.91;;;15.33;88.81
79455;BME280;68900;52.134;5.420;2023-08-07T08:02:05;101663.94;;;15.17;88.22
79455;BME280;68900;52.134;5.420;2023-08-07T08:04:31;101669.69;;;15.06;87.94
79455;BME280;68900;52.134;5.420;2023-08-07T08:06:58;101673.72;;;15.01;88.58
79455;BME280;68900;52.134;5.420;2023-08-07T08:09:26;101678.47;;;14.99;88.78
79455;BME280;68900;52.134;5.420;2023-08-07T08:11:52;101676.06;;;14.96;87.83
79455;BME280;68900;52.134;5.420;2023-08-07T08:14:25;101690.28;;;14.90;88.19
79455;BME280;68900;52.134;5.420;2023-08-07T08:16:54;101700.09;;;14.83;88.07
79455;BME280;68900;52.134;5.420;2023-08-07T08:19:21;101696.66;;;14.81;88.71
79455;BME280;68900;52.134;5.420;2023-08-07T08:21:51;101698.06;;;14.85;89.68
79455;BME280;68900;52.134;5.420;2023-08-07T08:24:24;101706.06;;;14.87;89.30
79455;BME280;68900;52.134;5.420;2023-08-07T08:26:51;101696.66;;;14.81;87.49
79455;BME280;68900;52.134;5.420;2023-08-07T08:29:21;101693.94;;;14.81;87.53
79455;BME280;68900;52.134;5.420;2023-08-07T08:31:47;101696.63;;;14.99;87.56
79455;BME280;68900;52.134;5.420;2023-08-07T08:34:14;101703.06;;;15.16;87.06
79455;BME280;68900;52.134;5.420;2023-08-07T08:36:41;101708.28;;;15.35;86.75
79455;BME280;68900;52.134;5.420;2023-08-07T08:39:08;101698.47;;;15.50;85.76
79455;BME280;68900;52.134;5.420;2023-08-07T08:41:35;101702.19;;;15.67;85.44
79455;BME280;68900;52.134;5.420;2023-08-07T08:44:04;101703.72;;;15.77;83.56
79455;BME280;68900;52.134;5.420;2023-08-07T08:46:45;101693.59;;;15.96;82.00
79455;BME280;68900;52.134;5.420;2023-08-07T08:49:18;101703.81;;;16.02;82.75
79455;BME280;68900;52.134;5.420;2023-08-07T08:51:47;101718.56;;;15.91;80.24
79455;BME280;68900;52.134;5.420;2023-08-07T08:54:14;101703.22;;;15.74;80.35
79455;BME280;68900;52.134;5.420;2023-08-07T08:56:41;101716.41;;;15.61;80.34
79455;BME280;68900;52.134;5.420;2023-08-07T08:59:09;101725.47;;;15.43;79.91
79455;BME280;68900;52.134;5.420;2023-08-07T09:01:36;101739.50;;;15.31;80.98
79455;BME280;68900;52.134;5.420;2023-08-07T09:04:03;101743.16;;;15.22;80.57
79455;BME280;68900;52.134;5.420;2023-08-07T09:06:31;101738.06;;;15.19;81.21
79455;BME280;68900;52.134;5.420;2023-08-07T09:08:59;101734.19;;;15.21;80.92
79455;BME280;68900;52.134;5.420;2023-08-07T09:11:27;101726.84;;;15.22;80.96
79455;BME280;68900;52.134;5.420;2023-08-07T09:13:55;101733.84;;;15.24;81.84
79455;BME280;68900;52.134;5.420;2023-08-07T09:16:24;101735.47;;;15.35;82.38
79455;BME280;68900;52.134;5.420;2023-08-07T09:18:52;101737.91;;;15.46;81.77
79455;BME280;68900;52.134;5.420;2023-08-07T09:21:21;101740.00;;;15.52;81.25
79455;BME280;68900;52.134;5.420;2023-08-07T09:23:48;101744.38;;;15.71;81.56
79455;BME280;68900;52.134;5.420;2023-08-07T09:26:21;101738.97;;;15.87;79.88
79455;BME280;68900;52.134;5.420;2023-08-07T09:28:51;101740.34;;;15.91;81.20
79455;BME280;68900;52.134;5.420;2023-08-07T09:31:18;101745.16;;;15.97;79.75
79455;BME280;68900;52.134;5.420;2023-08-07T09:33:47;101754.56;;;16.11;80.23
79455;BME280;68900;52.134;5.420;2023-08-07T09:36:14;101749.34;;;16.25;80.07
79455;BME280;68900;52.134;5.420;2023-08-07T09:38:41;101746.25;;;16.28;78.34
79455;BME280;68900;52.134;5.420;2023-08-07T09:41:08;101749.00;;;16.28;78.92
79455;BME280;68900;52.134;5.420;2023-08-07T09:43:35;101749.84;;;16.29;79.27
79455;BME280;68900;52.134;5.420;2023-08-07T09:46:06;101751.19;;;16.25;79.02
79455;BME280;68900;52.134;5.420;2023-08-07T09:48:41;101745.38;;;16.12;77.85
79455;BME280;68900;52.134;5.420;2023-08-07T09:51:08;101755.56;;;16.10;78.49
79455;BME280;68900;52.134;5.420;2023-08-07T09:53:35;101758.66;;;16.15;78.92
79455;BME280;68900;52.134;5.420;2023-08-07T09:56:08;101772.25;;;16.15;78.11
79455;BME280;68900;52.134;5.420;2023-08-07T09:58:35;101765.66;;;16.17;77.44
79455;BME280;68900;52.134;5.420;2023-08-07T10:01:07;101779.81;;;16.29;79.27
79455;BME280;68900;52.134;5.420;2023-08-07T10:03:36;101782.38;;;16.30;76.00
79455;BME280;68900;52.134;5.420;2023-08-07T10:06:04;101790.16;;;16.17;76.37
79455;BME280;68900;52.134;5.420;2023-08-07T10:08:32;101793.50;;;16.03;78.06
79455;BME280;68900;52.134;5.420;2023-08-07T10:11:00;101788.69;;;15.97;78.51
79455;BME280;68900;52.134;5.420;2023-08-07T10:13:29;101789.91;;;15.95;78.44
79455;BME280;68900;52.134;5.420;2023-08-07T10:16:00;101790.06;;;16.01;79.15
79455;BME280;68900;52.134;5.420;2023-08-07T10:18:26;101783.78;;;16.01;79.47
79455;BME280;68900;52.134;5.420;2023-08-07T10:20:55;101789.06;;;16.02;79.18
79455;BME280;68900;52.134;5.420;2023-08-07T10:23:23;101794.53;;;16.10;78.89
79455;BME280;68900;52.134;5.420;2023-08-07T10:25:52;101785.03;;;16.14;78.59
79455;BME280;68900;52.134;5.420;2023-08-07T10:28:20;101792.69;;;16.19;78.59
79455;BME280;68900;52.134;5.420;2023-08-07T10:30:48;101787.31;;;16.27;79.23
79455;BME280;68900;52.134;5.420;2023-08-07T10:33:17;101782.59;;;16.45;78.53
79455;BME280;68900;52.134;5.420;2023-08-07T10:35:47;101792.00;;;16.59;78.01
79455;BME280;68900;52.134;5.420;2023-08-07T10:38:15;101779.09;;;16.69;76.50
79455;BME280;68900;52.134;5.420;2023-08-07T10:40:58;101793.78;;;17.00;77.27
79455;BME280;68900;52.134;5.420;2023-08-07T10:43:27;101788.13;;;17.02;76.16
79455;BME280;68900;52.134;5.420;2023-08-07T10:46:05;101777.22;;;17.02;77.33
79455;BME280;68900;52.134;5.420;2023-08-07T10:48:39;101789.84;;;16.95;76.13
79455;BME280;68900;52.134;5.420;2023-08-07T10:51:06;101804.50;;;16.94;76.86
79455;BME280;68900;52.134;5.420;2023-08-07T10:53:40;101795.66;;;16.92;74.16
79455;BME280;68900;52.134;5.420;2023-08-07T10:56:34;101789.84;;;17.11;75.30
79455;BME280;68900;52.134;5.420;2023-08-07T10:59:11;101791.19;;;17.31;75.07
79455;BME280;68900;52.134;5.420;2023-08-07T11:04:11;101792.56;;;17.35;73.02
79455;BME280;68900;52.134;5.420;2023-08-07T11:06:39;101795.28;;;17.35;73.27
79455;BME280;68900;52.134;5.420;2023-08-07T11:09:20;101796.50;;;17.25;73.15
79455;BME280;68900;52.134;5.420;2023-08-07T11:11:48;101808.91;;;17.11;72.51
79455;BME280;68900;52.134;5.420;2023-08-07T11:14:16;101812.84;;;17.08;73.63
79455;BME280;68900;52.134;5.420;2023-08-07T11:16:44;101790.53;;;17.05;74.69
79455;BME280;68900;52.134;5.420;2023-08-07T11:19:15;101822.91;;;17.00;72.29
79455;BME280;68900;52.134;5.420;2023-08-07T11:21:42;101818.13;;;16.94;71.48
79455;BME280;68900;52.134;5.420;2023-08-07T11:24:13;101823.56;;;16.94;73.02
79455;BME280;68900;52.134;5.420;2023-08-07T11:26:42;101825.97;;;16.97;73.83
79455;BME280;68900;52.134;5.420;2023-08-07T11:29:10;101816.75;;;16.98;72.91
79455;BME280;68900;52.134;5.420;2023-08-07T11:31:36;101812.50;;;17.11;73.05
79455;BME280;68900;52.134;5.420;2023-08-07T11:34:04;101817.13;;;17.27;73.28
79455;BME280;68900;52.134;5.420;2023-08-07T11:36:31;101812.69;;;17.42;73.45
79455;BME280;68900;52.134;5.420;2023-08-07T11:39:00;101813.34;;;17.52;73.05
79455;BME280;68900;52.134;5.420;2023-08-07T11:41:26;101818.81;;;17.60;70.99
79455;BME280;68900;52.134;5.420;2023-08-07T11:43:55;101832.78;;;17.74;70.68
79455;BME280;68900;52.134;5.420;2023-08-07T11:46:22;101807.00;;;17.76;71.84
79455;BME280;68900;52.134;5.420;2023-08-07T11:48:51;101811.91;;;17.97;72.34
79455;BME280;68900;52.134;5.420;2023-08-07T11:51:19;101813.63;;;17.98;69.75
79455;BME280;68900;52.134;5.420;2023-08-07T11:53:46;101813.41;;;17.99;69.34
79455;BME280;68900;52.134;5.420;2023-08-07T11:56:13;101808.63;;;18.09;70.92
79455;BME280;68900;52.134;5.420;2023-08-07T11:58:47;101806.00;;;18.24;69.31
79455;BME280;68900;52.134;5.420;2023-08-07T12:01:16;101809.59;;;18.25;69.05
79455;BME280;68900;52.134;5.420;2023-08-07T12:03:57;101804.94;;;18.33;69.01
79455;BME280;68900;52.134;5.420;2023-08-07T12:06:24;101798.59;;;18.33;67.75
79455;BME280;68900;52.134;5.420;2023-08-07T12:08:59;101797.91;;;18.39;69.15
79455;BME280;68900;52.134;5.420;2023-08-07T12:11:26;101787.41;;;18.59;67.90
79455;BME280;68900;52.134;5.420;2023-08-07T12:13:55;101792.66;;;18.60;64.82
79455;BME280;68900;52.134;5.420;2023-08-07T12:16:22;101796.94;;;18.63;65.88
79455;BME280;68900;52.134;5.420;2023-08-07T12:18:50;101791.19;;;18.80;65.54
79455;BME280;68900;52.134;5.420;2023-08-07T12:21:18;101800.41;;;19.02;66.99
79455;BME280;68900;52.134;5.420;2023-08-07T12:23:50;101796.09;;;19.08;63.57
79455;BME280;68900;52.134;5.420;2023-08-07T12:26:18;101800.59;;;19.01;63.39
79455;BME280;68900;52.134;5.420;2023-08-07T12:28:45;101806.31;;;18.91;64.93
79455;BME280;68900;52.134;5.420;2023-08-07T12:31:18;101802.13;;;19.03;63.77
79455;BME280;68900;52.134;5.420;2023-08-07T12:33:47;101805.22;;;19.00;58.97
79455;BME280;68900;52.134;5.420;2023-08-07T12:36:15;101810.16;;;18.82;58.36
79455;BME280;68900;52.134;5.420;2023-08-07T12:38:46;101806.47;;;18.67;59.18
79455;BME280;68900;52.134;5.420;2023-08-07T12:41:14;101802.59;;;18.61;60.79
79455;BME280;68900;52.134;5.420;2023-08-07T12:43:45;101806.13;;;18.70;60.04
79455;BME280;68900;52.134;5.420;2023-08-07T12:46:12;101807.69;;;18.87;61.34
79455;BME280;68900;52.134;5.420;2023-08-07T12:48:41;101801.44;;;19.01;59.18
79455;BME280;68900;52.134;5.420;2023-08-07T12:51:08;101806.59;;;18.96;58.19
79455;BME280;68900;52.134;5.420;2023-08-07T12:53:37;101804.38;;;19.00;58.07
79455;BME280;68900;52.134;5.420;2023-08-07T12:56:05;101796.47;;;19.05;56.73
79455;BME280;68900;52.134;5.420;2023-08-07T12:58:32;101790.47;;;19.09;58.08
79455;BME280;68900;52.134;5.420;2023-08-07T13:01:00;101806.50;;;19.12;57.13
79455;BME280;68900;52.134;5.420;2023-08-07T13:03:27;101799.88;;;19.07;56.08
79455;BME280;68900;52.134;5.420;2023-08-07T13:05:53;101807.22;;;19.06;58.06
79455;BME280;68900;52.134;5.420;2023-08-07T13:08:20;101806.59;;;18.96;58.11